< < Back
Terminal Aerodrome Forecast


Current Version              Previous Versions:   1  2  3  4  5  6  7  8  9  

Terminal Aerodrome Forecast

454
FTUS42 KCAE 300400 AAB
TAFCAE
TAF AMD
KCAE 300432Z 3005/3024 30008KT P6SM BKN045 OVC060
     FM300700 01008KT P6SM VCSH BKN050
     FM301300 02010KT P6SM SKC=

Latest METAR

700
SAUS80 KWBC 301500
MTRCAE
METAR KCAE 301456Z 02009KT 10SM CLR 19/05 A3005 RMK AO2 SLP173 T01890050
51008


USA.gov is the U.S. government's official web portal to all federal, state and local government web resources and services.